Time;durP1;ratioP1;P1;durP2;ratioP2;P2;SDS_P1;SDS_P2;PMS_P1;PMS_P2;Temp;Humidity;BMP_temperature;BMP_pressure;BME280_temperature;BME280_humidity;BME280_pressure;Samples;Min_cycle;Max_cycle;Signal;HPM_P1;HPM_P2
2024/01/17 00:00:16;;;;;;;6.60;3.80;;;1.00;99.90;;;;;;5037166;28;20110;-71
2024/01/17 00:02:41;;;;;;;9.98;3.95;;;1.00;99.90;;;;;;5055198;28;20037;-71
2024/01/17 00:05:10;;;;;;;7.10;4.55;;;1.00;99.90;;;;;;5053692;28;20107;-71
2024/01/17 00:07:36;;;;;;;8.80;3.85;;;0.90;99.90;;;;;;5053701;28;20124;-71
2024/01/17 00:10:03;;;;;;;7.50;3.63;;;0.90;99.90;;;;;;5053542;28;20047;-71
2024/01/17 00:12:29;;;;;;;8.95;3.97;;;0.90;99.90;;;;;;5053748;28;20451;-71
2024/01/17 00:14:55;;;;;;;6.82;3.10;;;0.90;99.90;;;;;;5054985;28;20040;-71
2024/01/17 00:17:20;;;;;;;6.35;3.00;;;0.90;99.90;;;;;;5053517;28;20124;-70
2024/01/17 00:19:46;;;;;;;7.15;3.72;;;0.80;99.90;;;;;;5053582;28;20041;-71
2024/01/17 00:22:14;;;;;;;7.80;3.10;;;0.90;99.90;;;;;;5053530;28;20040;-71
2024/01/17 00:24:39;;;;;;;6.68;3.38;;;0.80;99.90;;;;;;5036784;28;20116;-70
2024/01/17 00:27:05;;;;;;;7.47;2.97;;;0.80;99.90;;;;;;5036831;28;20128;-71
2024/01/17 00:29:31;;;;;;;7.78;3.25;;;0.80;99.90;;;;;;5053133;28;20520;-71
2024/01/17 00:31:57;;;;;;;5.32;3.33;;;0.90;99.90;;;;;;5053268;28;20137;-71
2024/01/17 00:34:22;;;;;;;5.18;2.78;;;0.70;99.90;;;;;;5053442;28;20504;-71
2024/01/17 00:36:48;;;;;;;6.72;3.17;;;0.70;99.90;;;;;;5054330;28;20037;-71
2024/01/17 00:39:16;;;;;;;7.00;3.47;;;0.80;99.90;;;;;;5053225;28;20037;-71
2024/01/17 00:41:42;;;;;;;4.70;3.20;;;0.70;99.90;;;;;;5053456;28;20048;-71
2024/01/17 00:44:08;;;;;;;11.18;4.00;;;0.60;99.90;;;;;;5054461;28;20112;-71
2024/01/17 00:46:34;;;;;;;5.28;3.10;;;0.70;99.90;;;;;;5053082;28;20076;-70
2024/01/17 00:48:59;;;;;;;10.10;3.65;;;0.60;99.90;;;;;;5052890;28;20074;-70
2024/01/17 00:51:25;;;;;;;6.93;3.97;;;0.70;99.90;;;;;;5053239;28;20519;-70
2024/01/17 00:53:54;;;;;;;6.45;3.03;;;0.70;99.90;;;;;;5053832;28;20058;-70
2024/01/17 00:56:19;;;;;;;6.53;3.45;;;0.60;99.90;;;;;;5054225;28;20405;-71
2024/01/17 00:58:45;;;;;;;9.07;3.95;;;0.60;99.90;;;;;;5052726;28;20037;-71
2024/01/17 01:01:10;;;;;;;6.80;3.55;;;0.60;99.90;;;;;;5052730;28;20056;-71
2024/01/17 01:03:36;;;;;;;12.02;3.40;;;0.70;99.90;;;;;;5054154;28;20040;-70
2024/01/17 01:06:02;;;;;;;8.98;3.60;;;0.60;99.90;;;;;;5052728;28;20516;-71
2024/01/17 01:08:28;;;;;;;5.70;3.70;;;0.70;99.90;;;;;;5053859;28;20041;-71
2024/01/17 01:10:54;;;;;;;9.50;4.10;;;0.60;99.90;;;;;;5053925;28;20398;-71
2024/01/17 01:13:19;;;;;;;10.57;3.67;;;0.70;99.90;;;;;;5035984;28;20029;-71
2024/01/17 01:15:45;;;;;;;6.38;3.28;;;0.80;99.90;;;;;;5035763;28;20523;-71
2024/01/17 01:18:11;;;;;;;6.68;3.95;;;0.70;99.90;;;;;;5052433;28;20033;-71
2024/01/17 01:20:36;;;;;;;7.93;4.25;;;0.80;99.90;;;;;;5052757;28;20528;-70
2024/01/17 01:23:02;;;;;;;7.43;3.90;;;0.70;99.90;;;;;;5052417;28;20048;-71
2024/01/17 01:25:28;;;;;;;6.43;3.58;;;0.80;99.90;;;;;;5052279;28;20040;-71
2024/01/17 01:27:54;;;;;;;6.18;3.22;;;0.80;99.90;;;;;;5052260;28;20123;-71
2024/01/17 01:30:19;;;;;;;7.55;3.83;;;0.80;99.90;;;;;;5051955;28;20399;-70
2024/01/17 01:32:45;;;;;;;8.52;4.10;;;0.80;99.90;;;;;;5052491;28;20389;-71
2024/01/17 01:35:10;;;;;;;9.32;4.50;;;0.90;99.90;;;;;;5052082;28;20036;-71
2024/01/17 01:37:36;;;;;;;12.27;5.28;;;0.90;99.90;;;;;;5052306;28;20090;-71
2024/01/17 01:40:02;;;;;;;10.27;4.40;;;0.90;99.90;;;;;;5053265;28;20500;-71
2024/01/17 01:42:28;;;;;;;9.80;4.15;;;0.70;99.90;;;;;;5052093;28;20497;-71
2024/01/17 01:44:54;;;;;;;11.07;5.47;;;0.80;99.90;;;;;;5051806;28;20486;-71
2024/01/17 01:47:21;;;;;;;9.10;5.47;;;0.70;99.90;;;;;;5053131;28;20564;-70
2024/01/17 01:49:48;;;;;;;9.60;5.30;;;0.80;99.90;;;;;;5053117;28;20554;-70
2024/01/17 01:52:14;;;;;;;9.52;5.43;;;0.70;99.90;;;;;;5052176;28;20449;-71
2024/01/17 01:54:41;;;;;;;10.50;5.60;;;0.80;99.90;;;;;;5034934;28;20044;-72
2024/01/17 01:57:08;;;;;;;7.43;4.95;;;0.80;99.90;;;;;;5051956;28;20504;-73
2024/01/17 01:59:34;;;;;;;6.82;5.00;;;0.70;99.90;;;;;;5051523;28;20053;-72
2024/01/17 02:01:59;;;;;;;12.80;5.88;;;0.70;99.90;;;;;;5053190;28;20094;-72
2024/01/17 02:04:27;;;;;;;10.80;6.43;;;0.70;99.90;;;;;;5051328;28;20085;-72
2024/01/17 02:06:54;;;;;;;9.95;5.85;;;0.70;99.90;;;;;;5052825;28;20409;-71
2024/01/17 02:09:20;;;;;;;9.73;5.95;;;0.70;99.90;;;;;;5034696;28;20469;-72
2024/01/17 02:11:46;;;;;;;17.25;6.65;;;0.70;99.90;;;;;;5051493;28;20079;-72
2024/01/17 02:14:13;;;;;;;11.18;6.35;;;0.70;99.90;;;;;;5051334;28;20412;-72
2024/01/17 02:16:41;;;;;;;10.93;6.15;;;0.60;99.90;;;;;;5051229;28;20041;-72
2024/01/17 02:19:10;;;;;;;12.27;7.65;;;0.70;99.90;;;;;;5051168;28;20076;-71
2024/01/17 02:21:35;;;;;;;11.88;6.55;;;0.60;99.90;;;;;;5052547;28;20473;-72
2024/01/17 02:24:23;;;;;;;11.70;7.30;;;0.70;99.90;;;;;;5052515;28;20037;-72
2024/01/17 02:26:49;;;;;;;9.65;7.60;;;0.70;99.90;;;;;;5051063;28;20048;-72
2024/01/17 02:29:14;;;;;;;11.30;6.78;;;0.60;99.90;;;;;;5052418;28;20080;-72
2024/01/17 02:31:41;;;;;;;14.45;6.68;;;0.70;99.90;;;;;;5052499;28;20103;-72
2024/01/17 02:34:07;;;;;;;12.07;6.63;;;0.80;99.90;;;;;;5051059;28;20560;-71
2024/01/17 02:36:32;;;;;;;10.70;6.90;;;0.70;99.90;;;;;;5050942;28;20072;-72
2024/01/17 02:38:58;;;;;;;12.07;6.82;;;0.70;99.90;;;;;;5052059;28;20036;-72
2024/01/17 02:41:24;;;;;;;13.77;7.22;;;0.70;99.90;;;;;;5052074;28;20085;-72
2024/01/17 02:43:49;;;;;;;19.08;7.53;;;0.80;99.90;;;;;;5052271;28;20040;-72
2024/01/17 02:46:15;;;;;;;11.95;6.47;;;0.80;99.90;;;;;;5050809;28;20045;-72
2024/01/17 02:48:40;;;;;;;15.23;7.55;;;0.70;99.90;;;;;;5050787;28;20040;-72
2024/01/17 02:51:06;;;;;;;14.02;7.88;;;0.70;99.90;;;;;;5052117;28;20088;-72
2024/01/17 02:53:32;;;;;;;13.18;7.65;;;0.80;99.90;;;;;;5050726;28;20410;-71
2024/01/17 02:55:57;;;;;;;13.73;7.55;;;0.80;99.90;;;;;;5051771;28;20043;-71
2024/01/17 02:58:23;;;;;;;15.63;8.18;;;0.80;99.90;;;;;;5051565;28;20043;-71
2024/01/17 03:00:48;;;;;;;11.43;8.00;;;0.80;99.90;;;;;;5050577;28;20080;-71
2024/01/17 03:03:15;;;;;;;13.85;8.02;;;0.80;99.90;;;;;;5051931;28;20116;-71
2024/01/17 03:05:40;;;;;;;12.90;8.43;;;0.70;99.90;;;;;;5051779;28;20037;-72
2024/01/17 03:08:06;;;;;;;17.58;9.15;;;0.70;99.90;;;;;;5050219;28;20041;-72
2024/01/17 03:10:32;;;;;;;22.85;8.30;;;0.70;99.90;;;;;;5050295;28;20048;-72
2024/01/17 03:12:58;;;;;;;16.98;8.57;;;0.70;99.90;;;;;;5051959;28;20405;-71
2024/01/17 03:15:24;;;;;;;14.02;8.25;;;0.70;99.90;;;;;;5050173;28;20037;-72
2024/01/17 03:17:50;;;;;;;14.23;8.30;;;0.80;99.90;;;;;;5050783;28;20041;-72
2024/01/17 03:20:17;;;;;;;16.27;8.68;;;0.80;99.90;;;;;;5050038;28;20448;-72
2024/01/17 03:22:43;;;;;;;14.75;8.43;;;0.80;99.90;;;;;;5050250;28;20072;-72
2024/01/17 03:25:08;;;;;;;13.30;7.88;;;0.80;99.90;;;;;;5051668;28;20499;-72
2024/01/17 03:27:35;;;;;;;15.30;8.82;;;0.70;99.90;;;;;;5050148;28;20056;-71
2024/01/17 03:30:04;;;;;;;14.93;8.85;;;0.70;99.90;;;;;;5050228;28;20041;-72
2024/01/17 03:32:30;;;;;;;13.20;8.48;;;0.70;99.90;;;;;;5051544;28;20512;-72
2024/01/17 03:34:57;;;;;;;17.67;8.80;;;0.70;99.90;;;;;;5050265;28;20040;-71
2024/01/17 03:37:23;;;;;;;13.07;8.68;;;0.80;99.90;;;;;;5050053;28;20056;-71
2024/01/17 03:39:49;;;;;;;16.02;9.07;;;0.80;99.90;;;;;;5051223;28;20382;-72
2024/01/17 03:42:16;;;;;;;14.27;10.30;;;0.70;99.90;;;;;;5050404;28;20048;-71
2024/01/17 03:44:45;;;;;;;14.68;9.23;;;0.80;99.90;;;;;;5050310;28;20404;-72
2024/01/17 03:47:12;;;;;;;16.40;9.57;;;0.70;99.90;;;;;;5051338;28;20071;-71
2024/01/17 03:49:38;;;;;;;16.92;10.00;;;0.60;99.90;;;;;;5051122;28;20091;-73
2024/01/17 03:52:06;;;;;;;15.13;8.93;;;0.60;99.90;;;;;;5050013;28;20497;-72
2024/01/17 03:54:31;;;;;;;15.55;9.77;;;0.70;99.90;;;;;;5078702;23;20040;-72
2024/01/17 03:56:57;;;;;;;17.05;10.77;;;0.60;99.90;;;;;;5091344;28;20453;-72
2024/01/17 03:59:22;;;;;;;15.50;9.45;;;0.60;99.90;;;;;;5090548;28;20111;-72
2024/01/17 04:01:48;;;;;;;17.73;8.95;;;0.70;99.90;;;;;;5091440;28;20086;-70
2024/01/17 04:04:14;;;;;;;14.63;9.15;;;0.60;99.90;;;;;;5091344;28;20036;-70
2024/01/17 04:06:40;;;;;;;14.73;9.60;;;0.70;99.90;;;;;;5091166;28;20059;-70
2024/01/17 04:09:05;;;;;;;15.10;9.48;;;0.70;99.90;;;;;;5091135;28;20388;-70
2024/01/17 04:11:31;;;;;;;15.27;9.40;;;0.60;99.90;;;;;;5091365;28;20043;-70
2024/01/17 04:13:57;;;;;;;17.35;10.40;;;0.60;99.90;;;;;;5091364;28;20102;-72
2024/01/17 04:16:22;;;;;;;15.77;9.73;;;0.80;99.90;;;;;;5091117;28;20549;-70
2024/01/17 04:18:48;;;;;;;15.32;10.02;;;0.80;99.90;;;;;;5091045;28;20154;-70
2024/01/17 04:21:20;;;;;;;18.45;9.63;;;0.70;99.90;;;;;;5073045;28;20036;-70
2024/01/17 04:23:48;;;;;;;15.43;10.25;;;0.70;99.90;;;;;;5091396;28;20048;-70
2024/01/17 04:26:23;;;;;;;22.30;10.68;;;0.70;99.90;;;;;;5056274;28;20047;-70
2024/01/17 04:28:50;;;;;;;15.38;10.18;;;0.60;99.90;;;;;;5075233;28;20496;-70
2024/01/17 04:31:26;;;;;;;14.73;10.40;;;0.70;99.90;;;;;;5094976;28;20119;-70
2024/01/17 04:33:52;;;;;;;16.58;10.70;;;0.70;99.90;;;;;;5095010;28;20035;-70
2024/01/17 04:36:20;;;;;;;14.50;10.23;;;0.70;99.90;;;;;;5094992;28;20074;-70
2024/01/17 04:38:46;;;;;;;14.82;9.77;;;0.70;99.90;;;;;;5076609;28;20105;-70
2024/01/17 04:41:12;;;;;;;18.90;9.77;;;0.60;99.90;;;;;;5094825;28;20032;-70
2024/01/17 04:43:42;;;;;;;17.33;10.10;;;0.60;99.90;;;;;;5094697;28;20036;-72
2024/01/17 04:46:12;;;;;;;16.88;10.57;;;0.80;99.90;;;;;;5094416;28;20067;-71
2024/01/17 04:48:39;;;;;;;18.08;11.50;;;0.70;99.90;;;;;;5076125;28;20528;-71
2024/01/17 04:51:05;;;;;;;17.98;9.52;;;0.70;99.90;;;;;;5094290;28;20051;-71
2024/01/17 04:53:32;;;;;;;19.70;8.90;;;0.70;99.90;;;;;;5094573;28;20085;-71
2024/01/17 04:55:59;;;;;;;19.42;10.35;;;0.60;99.90;;;;;;5076147;28;20081;-70
2024/01/17 04:58:25;;;;;;;16.45;9.88;;;0.80;99.90;;;;;;5075982;28;20044;-71
2024/01/17 05:00:51;;;;;;;19.45;9.60;;;0.70;99.90;;;;;;5076428;28;20144;-70
2024/01/17 05:03:17;;;;;;;15.02;10.07;;;0.70;99.90;;;;;;5076215;28;20036;-70
2024/01/17 05:05:43;;;;;;;19.95;9.98;;;0.70;99.90;;;;;;5094347;28;20062;-70
2024/01/17 05:08:10;;;;;;;15.00;9.82;;;0.70;99.90;;;;;;5094082;28;20530;-71
2024/01/17 05:10:35;;;;;;;15.93;9.88;;;0.60;99.90;;;;;;5094209;28;20105;-71
2024/01/17 05:13:01;;;;;;;17.67;10.57;;;0.70;99.90;;;;;;5094075;28;20101;-72
2024/01/17 05:15:27;;;;;;;21.25;10.75;;;0.60;99.90;;;;;;5093922;28;20032;-71
2024/01/17 05:17:54;;;;;;;18.85;11.02;;;0.60;99.90;;;;;;5094098;28;20085;-71
2024/01/17 05:20:20;;;;;;;17.13;11.20;;;0.70;99.90;;;;;;5094092;28;20076;-71
2024/01/17 05:22:45;;;;;;;16.42;10.45;;;0.60;99.90;;;;;;5094130;28;20503;-71
2024/01/17 05:25:11;;;;;;;18.15;9.85;;;0.50;99.90;;;;;;5093811;28;20078;-71
2024/01/17 05:27:40;;;;;;;16.58;10.70;;;0.40;99.90;;;;;;5075600;28;20075;-71
2024/01/17 05:30:09;;;;;;;15.13;9.43;;;0.40;99.90;;;;;;5093555;28;20035;-72
2024/01/17 05:32:39;;;;;;;16.15;9.95;;;0.50;99.90;;;;;;5075928;28;20115;-71
2024/01/17 05:35:05;;;;;;;17.35;10.10;;;0.40;99.90;;;;;;5075709;28;20561;-71
2024/01/17 05:37:31;;;;;;;17.08;11.25;;;0.30;99.90;;;;;;5093730;28;20047;-72
2024/01/17 05:39:57;;;;;;;16.88;10.48;;;0.40;99.90;;;;;;5092495;28;20044;-71
2024/01/17 05:42:22;;;;;;;20.33;11.98;;;0.40;99.90;;;;;;5093494;28;20035;-71
2024/01/17 05:44:48;;;;;;;17.67;10.07;;;0.30;99.90;;;;;;5093600;28;20035;-72
2024/01/17 05:47:14;;;;;;;17.30;9.55;;;0.30;99.90;;;;;;5093361;28;20051;-71
2024/01/17 05:49:40;;;;;;;16.17;8.88;;;0.30;99.90;;;;;;5093358;28;20119;-71
2024/01/17 05:52:05;;;;;;;16.20;10.70;;;0.40;99.90;;;;;;5089193;28;20458;-71
2024/01/17 05:54:31;;;;;;;15.90;9.40;;;0.20;99.90;;;;;;5091213;28;20032;-71
2024/01/17 05:56:57;;;;;;;12.45;8.85;;;0.30;99.90;;;;;;5092934;28;20107;-71
2024/01/17 05:59:24;;;;;;;17.13;10.02;;;0.10;99.90;;;;;;5093282;28;20063;-71
2024/01/17 06:01:50;;;;;;;16.25;9.75;;;0.20;99.90;;;;;;5075302;28;20032;-72
2024/01/17 06:04:15;;;;;;;16.63;10.20;;;0.10;99.90;;;;;;5093211;28;20046;-71
2024/01/17 06:06:41;;;;;;;15.63;9.30;;;0.20;99.90;;;;;;5093034;28;20111;-71
2024/01/17 06:09:07;;;;;;;14.77;9.75;;;0.20;99.90;;;;;;5074861;28;20655;-71
2024/01/17 06:11:33;;;;;;;16.67;9.60;;;0.20;99.90;;;;;;5092847;28;20143;-71
2024/01/17 06:13:59;;;;;;;16.35;9.18;;;0.00;99.90;;;;;;5092902;28;20119;-71
2024/01/17 06:16:25;;;;;;;16.45;9.65;;;0.10;99.90;;;;;;5093022;28;20040;-71
2024/01/17 06:18:51;;;;;;;14.82;8.98;;;0.00;99.90;;;;;;5074426;28;20047;-71
2024/01/17 06:21:17;;;;;;;13.68;9.15;;;0.00;99.90;;;;;;5092863;28;20036;-71
2024/01/17 06:23:44;;;;;;;11.82;8.82;;;0.00;99.90;;;;;;5092851;28;20040;-71
2024/01/17 06:26:09;;;;;;;17.63;9.70;;;0.10;99.90;;;;;;5074651;28;20499;-72
2024/01/17 06:28:35;;;;;;;19.60;10.10;;;0.10;99.90;;;;;;5092579;28;20113;-71
2024/01/17 06:31:03;;;;;;;12.75;8.85;;;0.00;99.90;;;;;;5092726;28;20089;-71
2024/01/17 06:33:29;;;;;;;14.32;9.07;;;0.10;99.90;;;;;;5074579;28;20040;-72
2024/01/17 06:35:56;;;;;;;13.23;8.60;;;0.10;99.90;;;;;;5057520;28;20051;-71
2024/01/17 06:38:22;;;;;;;18.27;9.75;;;0.10;99.90;;;;;;5074091;28;20043;-72
2024/01/17 06:40:47;;;;;;;14.48;8.77;;;0.00;99.90;;;;;;5092297;28;20032;-71
2024/01/17 06:43:13;;;;;;;13.98;8.77;;;0.20;99.90;;;;;;5074296;28;20122;-72
2024/01/17 06:45:38;;;;;;;11.02;7.60;;;0.00;99.90;;;;;;5075292;28;20040;-71
2024/01/17 06:48:04;;;;;;;15.02;9.73;;;-0.10;99.90;;;;;;5074588;28;20109;-72
2024/01/17 06:50:30;;;;;;;13.88;9.20;;;0.00;99.90;;;;;;5074435;28;20081;-72
2024/01/17 06:52:55;;;;;;;14.55;8.77;;;0.10;99.90;;;;;;5057271;28;20076;-72
2024/01/17 06:55:21;;;;;;;12.65;8.43;;;0.00;99.90;;;;;;5091883;28;20048;-72
2024/01/17 06:57:47;;;;;;;13.98;9.45;;;0.00;99.90;;;;;;5073866;28;20479;-71
2024/01/17 07:00:15;;;;;;;13.65;8.95;;;-0.10;99.90;;;;;;5092173;28;20034;-71
2024/01/17 07:02:52;;;;;;;15.27;7.88;;;-0.10;99.90;;;;;;5074308;28;20123;-71
2024/01/17 07:05:18;;;;;;;13.90;8.20;;;-0.10;99.90;;;;;;5074055;28;20043;-71
2024/01/17 07:07:43;;;;;;;15.40;8.77;;;-0.10;99.90;;;;;;5091846;28;20055;-71
2024/01/17 07:10:09;;;;;;;18.67;8.88;;;0.00;99.90;;;;;;5092011;28;20036;-71
2024/01/17 07:12:37;;;;;;;13.40;9.85;;;0.00;99.90;;;;;;5091971;28;20493;-71
2024/01/17 07:15:03;;;;;;;17.15;8.63;;;-0.10;99.90;;;;;;5073991;28;20152;-71
2024/01/17 07:17:29;;;;;;;15.95;8.90;;;-0.10;99.90;;;;;;5073873;28;20520;-70
2024/01/17 07:19:54;;;;;;;13.80;8.25;;;-0.20;99.90;;;;;;5073612;28;20161;-70
2024/01/17 07:22:20;;;;;;;17.00;10.88;;;-0.20;99.90;;;;;;5073631;28;20388;-70
2024/01/17 07:24:45;;;;;;;16.73;8.20;;;-0.20;99.90;;;;;;5073495;28;20127;-70
2024/01/17 07:27:11;;;;;;;15.57;8.82;;;-0.10;99.90;;;;;;5091847;28;20115;-73
2024/01/17 07:29:37;;;;;;;11.75;7.55;;;-0.30;99.90;;;;;;5091587;28;20121;-71
2024/01/17 07:32:03;;;;;;;16.55;8.38;;;-0.20;99.90;;;;;;5073527;28;20400;-71
2024/01/17 07:34:28;;;;;;;13.88;8.73;;;-0.30;99.90;;;;;;5073483;28;20058;-71
2024/01/17 07:36:54;;;;;;;13.48;8.80;;;-0.30;99.90;;;;;;5091340;28;20495;-71
2024/01/17 07:39:21;;;;;;;14.05;8.52;;;-0.30;99.90;;;;;;5073324;28;20097;-71
2024/01/17 07:41:47;;;;;;;15.48;8.48;;;-0.30;99.90;;;;;;5091407;28;20659;-71
2024/01/17 07:44:14;;;;;;;12.82;9.82;;;-0.20;99.90;;;;;;5073172;28;20040;-71
2024/01/17 07:46:40;;;;;;;17.10;8.70;;;-0.20;99.90;;;;;;5091382;28;20043;-71
2024/01/17 07:49:05;;;;;;;18.55;11.00;;;-0.20;99.90;;;;;;5091179;28;20033;-71
2024/01/17 07:51:31;;;;;;;13.10;8.75;;;-0.30;99.90;;;;;;5091303;28;20043;-71
2024/01/17 07:53:57;;;;;;;14.43;8.07;;;-0.20;99.90;;;;;;5091458;28;20115;-71
2024/01/17 07:56:23;;;;;;;14.68;9.23;;;-0.30;99.90;;;;;;5091556;28;20051;-71
2024/01/17 07:58:50;;;;;;;13.05;9.32;;;-0.50;99.90;;;;;;5091275;28;20036;-71
2024/01/17 08:01:16;;;;;;;13.85;7.93;;;-0.40;99.90;;;;;;5091483;28;20047;-71
2024/01/17 08:03:41;;;;;;;20.73;10.57;;;-0.40;99.90;;;;;;5093933;28;20052;-71
2024/01/17 08:06:07;;;;;;;14.55;9.38;;;-0.40;99.90;;;;;;5095216;28;20080;-71
2024/01/17 08:08:33;;;;;;;17.73;8.55;;;-0.50;99.90;;;;;;5095277;28;20048;-72
2024/01/17 08:10:58;;;;;;;17.98;9.00;;;-0.50;99.90;;;;;;5095405;28;20036;-71
2024/01/17 08:13:24;;;;;;;16.08;9.25;;;-0.50;99.90;;;;;;5095440;28;20040;-71
2024/01/17 08:15:50;;;;;;;13.68;8.65;;;-0.50;99.90;;;;;;5095229;28;20107;-71
2024/01/17 08:18:16;;;;;;;18.17;10.55;;;-0.30;99.90;;;;;;5094940;28;20407;-70
2024/01/17 08:20:43;;;;;;;14.75;9.15;;;-0.50;99.90;;;;;;5076970;28;20032;-71
2024/01/17 08:23:09;;;;;;;14.07;9.10;;;-0.40;99.90;;;;;;5095229;28;20035;-70
2024/01/17 08:25:34;;;;;;;13.60;8.32;;;-0.30;99.90;;;;;;5094936;28;20046;-70
2024/01/17 08:28:00;;;;;;;13.60;8.77;;;-0.30;99.90;;;;;;5094157;28;20064;-71
2024/01/17 08:30:26;;;;;;;16.10;9.75;;;-0.40;99.90;;;;;;5094038;28;20039;-71
2024/01/17 08:32:53;;;;;;;14.98;9.60;;;-0.50;99.90;;;;;;5094444;28;20029;-70
2024/01/17 08:35:22;;;;;;;19.02;9.80;;;-0.40;99.90;;;;;;5073594;28;20050;-71
2024/01/17 08:37:48;;;;;;;13.63;8.68;;;-0.40;99.90;;;;;;5094858;28;20040;-71
2024/01/17 08:40:14;;;;;;;13.55;9.00;;;-0.40;99.90;;;;;;5094602;28;20052;-71
2024/01/17 08:42:39;;;;;;;11.98;8.40;;;-0.40;99.90;;;;;;5094675;28;20483;-71
2024/01/17 08:45:06;;;;;;;14.00;9.18;;;-0.30;99.90;;;;;;5094660;28;20046;-71
2024/01/17 08:47:32;;;;;;;15.68;8.65;;;-0.40;99.90;;;;;;5076281;28;20105;-71
2024/01/17 08:50:00;;;;;;;16.60;9.27;;;-0.40;99.90;;;;;;5076333;28;20087;-71
2024/01/17 08:52:26;;;;;;;15.48;8.90;;;-0.20;99.90;;;;;;5094697;28;20473;-70
2024/01/17 08:54:54;;;;;;;14.65;9.38;;;-0.20;99.90;;;;;;5094428;28;20055;-71
2024/01/17 08:57:20;;;;;;;12.73;8.68;;;-0.10;99.90;;;;;;5094442;28;20473;-71
2024/01/17 08:59:45;;;;;;;15.52;8.55;;;-0.30;99.90;;;;;;5094351;28;20072;-71
2024/01/17 09:02:11;;;;;;;16.70;8.75;;;-0.20;99.90;;;;;;5094384;28;20040;-71
2024/01/17 09:04:36;;;;;;;16.60;8.48;;;-0.30;99.90;;;;;;5094173;28;20498;-71
2024/01/17 09:07:02;;;;;;;13.63;9.18;;;-0.20;99.90;;;;;;5075998;28;20492;-71
2024/01/17 09:09:28;;;;;;;14.32;9.15;;;-0.20;99.90;;;;;;5094108;28;20067;-71
2024/01/17 09:11:53;;;;;;;14.40;8.73;;;-0.20;99.90;;;;;;5094165;28;20491;-71
2024/01/17 09:14:21;;;;;;;16.02;9.20;;;-0.20;99.90;;;;;;5092771;28;20035;-71
2024/01/17 09:16:50;;;;;;;11.80;8.40;;;-0.10;99.90;;;;;;5075817;28;20039;-71
2024/01/17 09:19:15;;;;;;;14.02;7.75;;;0.00;99.90;;;;;;5093827;28;20077;-71
2024/01/17 09:21:41;;;;;;;15.13;8.63;;;-0.10;99.90;;;;;;5075805;28;20474;-71
2024/01/17 09:24:07;;;;;;;19.55;9.80;;;0.00;99.90;;;;;;5075984;28;20040;-71
2024/01/17 09:26:32;;;;;;;12.70;8.07;;;-0.10;99.90;;;;;;5075687;28;20035;-71
2024/01/17 09:28:58;;;;;;;13.70;9.23;;;-0.10;99.90;;;;;;5075386;28;20047;-71
2024/01/17 09:31:23;;;;;;;15.68;9.18;;;-0.10;99.90;;;;;;5075492;28;20620;-71
2024/01/17 09:33:49;;;;;;;17.77;10.60;;;-0.10;99.90;;;;;;5092935;28;20036;-71
2024/01/17 09:36:15;;;;;;;19.17;9.05;;;-0.10;99.90;;;;;;5075259;28;20036;-71
2024/01/17 09:38:40;;;;;;;15.75;9.65;;;0.00;99.90;;;;;;5072172;28;20078;-71
2024/01/17 09:41:06;;;;;;;13.15;8.13;;;0.00;99.90;;;;;;5093124;28;20040;-71
2024/01/17 09:43:31;;;;;;;14.85;9.07;;;0.10;99.90;;;;;;5093171;28;20032;-71
2024/01/17 09:46:00;;;;;;;13.98;8.75;;;0.10;99.90;;;;;;5092855;28;20035;-71
2024/01/17 09:48:26;;;;;;;14.70;9.13;;;0.10;99.90;;;;;;5074580;28;20032;-72
2024/01/17 09:50:52;;;;;;;17.70;8.40;;;0.20;99.90;;;;;;5093024;28;20089;-71
2024/01/17 09:53:27;;;;;;;13.98;8.00;;;0.30;99.90;;;;;;5092939;28;20064;-70
2024/01/17 09:55:56;;;;;;;14.35;9.10;;;0.30;99.90;;;;;;5126679;22;20499;-70
2024/01/17 09:58:23;;;;;;;15.73;9.15;;;0.40;99.90;;;;;;5109519;28;20027;-69
2024/01/17 10:00:50;;;;;;;18.25;9.07;;;0.30;99.90;;;;;;5113193;28;20035;-69
2024/01/17 10:03:20;;;;;;;15.32;8.23;;;0.40;99.90;;;;;;5095131;28;20054;-71
2024/01/17 10:05:49;;;;;;;16.33;8.13;;;0.50;99.90;;;;;;5117592;27;20119;-69
2024/01/17 10:08:17;;;;;;;14.60;8.32;;;0.50;99.90;;;;;;5123975;27;20028;-69
2024/01/17 10:10:43;;;;;;;13.68;8.50;;;0.60;99.90;;;;;;5116442;27;20536;-69
2024/01/17 10:13:10;;;;;;;20.02;9.10;;;0.60;99.90;;;;;;5113370;28;20074;-69
2024/01/17 10:15:49;;;;;;;13.25;8.48;;;0.60;99.90;;;;;;5095183;28;20071;-70
2024/01/17 10:18:15;;;;;;;10.73;7.35;;;0.60;99.90;;;;;;5113223;28;20114;-69
2024/01/17 10:20:42;;;;;;;12.52;7.55;;;0.70;99.90;;;;;;5113057;28;20071;-69
2024/01/17 10:23:08;;;;;;;10.45;7.20;;;0.70;99.90;;;;;;5113168;28;20054;-69
2024/01/17 10:25:38;;;;;;;13.27;8.75;;;0.70;99.90;;;;;;5112518;28;20031;-69
2024/01/17 10:28:05;;;;;;;12.60;8.02;;;0.70;99.90;;;;;;5128722;27;20499;-69
2024/01/17 10:30:31;;;;;;;13.38;7.40;;;0.80;99.90;;;;;;5112795;28;20503;-69
2024/01/17 10:32:56;;;;;;;15.35;7.80;;;0.90;99.90;;;;;;5113173;28;20042;-69
2024/01/17 10:35:23;;;;;;;13.85;7.28;;;0.80;99.90;;;;;;5113017;28;20042;-70
2024/01/17 10:37:52;;;;;;;11.00;7.40;;;0.90;99.90;;;;;;5112846;28;20491;-69
2024/01/17 10:40:19;;;;;;;13.32;7.93;;;0.80;99.90;;;;;;5112557;28;20123;-69
2024/01/17 10:42:44;;;;;;;12.85;7.22;;;0.90;99.90;;;;;;5112907;28;20441;-69
2024/01/17 10:45:21;;;;;;;13.18;7.20;;;0.90;99.90;;;;;;5112602;28;20043;-69
2024/01/17 10:47:47;;;;;;;12.48;6.78;;;1.00;99.90;;;;;;5112646;28;20032;-69
2024/01/17 10:50:13;;;;;;;12.00;7.97;;;1.00;99.90;;;;;;5112415;28;20043;-69
2024/01/17 10:52:43;;;;;;;12.02;7.43;;;1.00;99.90;;;;;;5112544;28;20494;-69
2024/01/17 10:55:10;;;;;;;13.38;7.65;;;1.10;99.90;;;;;;5094418;28;20054;-69
2024/01/17 10:57:44;;;;;;;12.20;8.02;;;1.20;99.90;;;;;;5094365;28;20118;-69
2024/01/17 11:00:16;;;;;;;12.05;7.88;;;1.10;99.90;;;;;;5109682;27;20495;-69
2024/01/17 11:02:44;;;;;;;8.40;6.43;;;1.10;99.90;;;;;;5103678;27;20104;-70
2024/01/17 11:05:13;;;;;;;13.35;7.47;;;1.10;99.90;;;;;;5104849;27;20387;-70
2024/01/17 11:07:40;;;;;;;12.40;6.78;;;1.10;99.90;;;;;;5103674;27;20043;-70
2024/01/17 11:10:08;;;;;;;11.35;7.60;;;1.10;99.90;;;;;;5102291;28;20071;-70
2024/01/17 11:12:36;;;;;;;12.98;8.00;;;1.10;99.90;;;;;;5127009;27;20038;-71
2024/01/17 11:15:06;;;;;;;10.65;6.85;;;1.20;99.90;;;;;;5133216;27;20114;-69
2024/01/17 11:17:36;;;;;;;13.27;7.78;;;1.20;99.90;;;;;;5114592;27;20090;-69
2024/01/17 11:20:10;;;;;;;13.20;6.95;;;1.20;99.90;;;;;;5132768;27;20046;-69
2024/01/17 11:22:40;;;;;;;14.75;7.47;;;1.20;99.90;;;;;;5114574;27;20087;-69
2024/01/17 11:25:43;;;;;;;14.52;7.88;;;1.20;99.90;;;;;;5132447;27;20073;-69
2024/01/17 11:28:28;;;;;;;11.88;7.43;;;1.20;99.90;;;;;;5113840;27;20051;-69
2024/01/17 11:31:25;;;;;;;11.55;7.38;;;1.30;99.90;;;;;;5132498;27;20088;-69
2024/01/17 11:33:51;;;;;;;13.70;6.88;;;1.30;99.90;;;;;;5132453;27;20051;-69
2024/01/17 11:36:47;;;;;;;11.40;6.70;;;1.20;99.90;;;;;;5096778;28;20490;-69
2024/01/17 11:39:19;;;;;;;13.30;6.90;;;1.30;99.90;;;;;;5110593;28;20062;-69
2024/01/17 11:41:48;;;;;;;10.02;6.22;;;1.40;99.90;;;;;;5132603;28;20038;-69
2024/01/17 11:44:15;;;;;;;10.32;6.40;;;1.30;99.90;;;;;;5132431;28;20512;-70
2024/01/17 11:46:41;;;;;;;15.55;7.85;;;1.20;99.90;;;;;;5113787;28;20410;-69
2024/01/17 11:49:14;;;;;;;13.35;6.80;;;1.30;99.90;;;;;;5132100;28;20039;-69
2024/01/17 11:51:39;;;;;;;10.05;6.20;;;1.30;99.90;;;;;;5132083;28;20521;-69
2024/01/17 11:54:09;;;;;;;11.82;6.82;;;1.20;99.90;;;;;;5114233;28;20035;-69
2024/01/17 11:56:35;;;;;;;10.95;6.60;;;1.30;99.90;;;;;;5132103;28;20039;-69
2024/01/17 11:59:12;;;;;;;10.77;7.05;;;1.30;99.90;;;;;;5113827;28;20494;-69
2024/01/17 12:01:42;;;;;;;10.43;6.90;;;1.30;99.90;;;;;;5132546;28;20039;-69
2024/01/17 12:04:17;;;;;;;9.65;6.05;;;1.30;99.90;;;;;;5132309;28;20110;-69
2024/01/17 12:06:48;;;;;;;11.40;6.80;;;1.30;99.90;;;;;;5130958;28;20036;-68
2024/01/17 12:09:19;;;;;;;11.05;7.40;;;1.30;99.90;;;;;;5120690;28;20115;-69
2024/01/17 12:11:48;;;;;;;13.73;7.30;;;1.30;99.90;;;;;;5116832;28;20039;-69
2024/01/17 12:14:15;;;;;;;13.32;7.10;;;1.30;99.90;;;;;;5119679;28;20057;-69
2024/01/17 12:16:41;;;;;;;13.00;6.97;;;1.30;99.90;;;;;;5111714;28;20081;-69
2024/01/17 12:19:10;;;;;;;11.80;7.47;;;1.30;99.90;;;;;;5110971;28;20039;-69
2024/01/17 12:21:35;;;;;;;12.13;7.20;;;1.30;99.90;;;;;;5111859;28;20099;-69
2024/01/17 12:24:01;;;;;;;12.73;7.03;;;1.30;99.90;;;;;;5111553;28;20032;-68
2024/01/17 12:26:27;;;;;;;15.32;7.53;;;1.20;99.90;;;;;;5111404;28;20584;-69
2024/01/17 12:29:08;;;;;;;15.25;7.35;;;1.10;99.90;;;;;;5111320;28;20039;-69
2024/01/17 12:31:34;;;;;;;13.80;7.60;;;1.10;99.90;;;;;;5117891;28;20043;-69
2024/01/17 12:34:00;;;;;;;12.35;7.50;;;1.10;99.90;;;;;;5121377;28;20035;-71
2024/01/17 12:36:25;;;;;;;13.80;7.47;;;1.10;99.90;;;;;;5128844;28;20063;-69
2024/01/17 12:38:51;;;;;;;12.10;6.97;;;1.10;99.90;;;;;;5131830;28;20167;-69
2024/01/17 12:41:17;;;;;;;11.75;7.22;;;1.00;99.90;;;;;;5132615;28;20564;-69
2024/01/17 12:43:45;;;;;;;14.18;7.13;;;0.90;99.90;;;;;;5114139;28;20047;-68